Time;durP1;ratioP1;P1;durP2;ratioP2;P2;SDS_P1;SDS_P2;PMS_P1;PMS_P2;Temp;Humidity;BMP_temperature;BMP_pressure;BME280_temperature;BME280_humidity;BME280_pressure;Samples;Min_cycle;Max_cycle;Signal;HPM_P1;HPM_P2
2023/04/24 00:01:29;;;;;;;16.10;9.00;;;;;;;8.30;100.00;99880.66;4902148;29;20031;-94
2023/04/24 00:03:55;;;;;;;18.05;10.95;;;;;;;8.33;100.00;99881.97;4920471;29;20054;-93
2023/04/24 00:06:23;;;;;;;19.40;10.57;;;;;;;8.34;100.00;99891.59;4925113;29;20031;-94
2023/04/24 00:08:48;;;;;;;16.83;10.13;;;;;;;8.30;100.00;99879.84;4913990;29;20025;-94
2023/04/24 00:11:14;;;;;;;17.37;11.50;;;;;;;-148.15;100.00;61821.78;4928793;29;20032;-95
2023/04/24 00:13:39;;;;;;;18.47;10.87;;;;;;;8.24;100.00;63606.66;4903489;29;20040;-95
2023/04/24 00:16:06;;;;;;;16.38;11.10;;;;;;;8.24;100.00;63606.59;4916553;29;20024;-95
2023/04/24 00:18:31;;;;;;;18.33;11.18;;;;;;;8.25;100.00;63607.00;4919010;29;20059;-94
2023/04/24 00:20:57;;;;;;;23.53;10.63;;;;;;;8.25;100.00;63607.25;4920119;29;20111;-94
2023/04/24 00:23:23;;;;;;;22.33;11.87;;;;;;;8.25;100.00;63607.16;4903055;29;20121;-95
2023/04/24 00:25:48;;;;;;;20.88;12.10;;;;;;;8.25;100.00;63606.91;4919362;29;20043;-94
2023/04/24 00:28:14;;;;;;;20.40;11.97;;;;;;;8.25;100.00;63606.91;4920407;29;20516;-94
2023/04/24 00:30:41;;;;;;;20.43;13.13;;;;;;;8.25;100.00;63606.91;4920052;29;20476;-95
2023/04/24 00:33:06;;;;;;;20.67;12.80;;;;;;;8.25;100.00;63606.69;4920784;29;20028;-95
2023/04/24 00:35:31;;;;;;;25.23;14.00;;;;;;;8.24;100.00;63606.28;4923982;29;20032;-93
2023/04/24 00:37:58;;;;;;;24.27;12.18;;;;;;;8.24;100.00;63606.44;4929400;29;20079;-94
2023/04/24 00:40:23;;;;;;;28.73;14.53;;;;;;;8.24;100.00;63605.59;4922227;29;20032;-93
2023/04/24 00:42:48;;;;;;;23.63;13.50;;;;;;;8.23;100.00;63604.50;4949596;28;20035;-93
2023/04/24 00:45:14;;;;;;;27.93;15.43;;;;;;;8.22;100.00;63604.00;4960539;28;20048;-93
2023/04/24 00:47:42;;;;;;;25.43;13.50;;;;;;;8.22;100.00;63603.75;4942404;29;20044;-94
2023/04/24 00:50:08;;;;;;;34.05;14.93;;;;;;;8.21;100.00;63602.88;4941629;29;20080;-93
2023/04/24 00:52:34;;;;;;;27.90;13.85;;;;;;;8.21;100.00;63601.69;4928909;29;20396;-93
2023/04/24 00:54:59;;;;;;;27.33;14.30;;;;;;;8.20;100.00;63601.19;4908243;29;20025;-94
2023/04/24 00:57:26;;;;;;;26.95;13.57;;;;;;;8.19;100.00;63600.53;4936182;29;20532;-94
2023/04/24 00:59:52;;;;;;;28.15;14.13;;;;;;;8.19;100.00;63599.88;4911920;29;20409;-93
2023/04/24 01:02:17;;;;;;;29.60;16.27;;;;;;;8.18;100.00;63598.88;4923832;29;20024;-93
2023/04/24 01:04:43;;;;;;;25.30;14.10;;;;;;;8.17;100.00;63598.03;4922269;29;20028;-93
2023/04/24 01:07:10;;;;;;;32.60;14.20;;;;;;;8.17;100.00;63597.38;4922292;29;20020;-94
2023/04/24 01:09:39;;;;;;;28.97;14.93;;;;;;;8.17;100.00;63597.31;4923957;29;20028;-93
2023/04/24 01:12:05;;;;;;;29.35;14.45;;;;;;;8.16;100.00;63596.63;4924298;29;20036;-93
2023/04/24 01:14:30;;;;;;;29.77;16.23;;;;;;;8.15;100.00;63595.81;4943649;29;20087;-93
2023/04/24 01:16:57;;;;;;;37.03;15.00;;;;;;;8.15;100.00;63595.31;4929573;29;20106;-93
2023/04/24 01:19:23;;;;;;;30.73;15.57;;;;;;;8.14;100.00;63594.81;4921231;29;20028;-94
2023/04/24 01:21:51;;;;;;;32.25;15.20;;;;;;;8.13;100.00;63593.63;4908670;29;20015;-93
2023/04/24 01:24:19;;;;;;;30.10;17.33;;;;;;;8.12;100.00;63592.47;4915677;29;20029;-93
2023/04/24 01:26:45;;;;;;;29.53;15.63;;;;;;;8.11;100.00;63591.47;4908469;29;20036;-93
2023/04/24 01:29:11;;;;;;;33.17;15.20;;;;;;;8.09;100.00;63590.16;4935327;29;20300;-93
2023/04/24 01:31:38;;;;;;;36.30;16.38;;;;;;;8.08;100.00;63588.47;4938264;29;20031;-93
2023/04/24 01:34:04;;;;;;;30.98;15.80;;;;;;;8.07;100.00;63587.06;4931195;29;20088;-93
2023/04/24 01:36:31;;;;;;;33.60;17.98;;;;;;;8.05;100.00;63585.44;4930515;29;20020;-94
2023/04/24 01:38:56;;;;;;;33.80;16.83;;;;;;;8.04;100.00;63584.44;4939759;29;20008;-94
2023/04/24 01:41:23;;;;;;;33.07;17.60;;;;;;;8.03;100.00;63583.19;4930316;29;20024;-93
2023/04/24 01:43:48;;;;;;;33.83;17.92;;;;;;;8.02;100.00;63582.03;4934916;29;20035;-94
2023/04/24 01:46:14;;;;;;;41.50;20.20;;;;;;;8.00;100.00;63579.78;4940311;28;20072;-93
2023/04/24 01:48:41;;;;;;;48.05;20.38;;;;;;;7.98;100.00;63578.44;4923901;29;20071;-93
2023/04/24 01:51:06;;;;;;;42.37;20.87;;;;;;;7.96;100.00;63576.53;4921395;29;20029;-93
2023/04/24 01:53:32;;;;;;;42.72;21.70;;;;;;;7.95;100.00;63575.38;4939967;28;20060;-90
2023/04/24 01:55:57;;;;;;;39.60;21.10;;;;;;;7.93;100.00;63573.31;4939612;29;20020;-92
2023/04/24 01:58:23;;;;;;;46.63;23.13;;;;;;;7.92;100.00;63571.66;4939132;29;20035;-91
2023/04/24 02:00:48;;;;;;;36.13;20.70;;;;;;;7.90;100.00;63570.16;4930289;29;20544;-91
2023/04/24 02:03:13;;;;;;;39.63;21.50;;;;;;;7.89;100.00;63568.75;4920045;29;20326;-91
2023/04/24 02:05:39;;;;;;;40.30;22.20;;;;;;;7.86;100.00;63566.81;4916477;29;20051;-90
2023/04/24 02:08:05;;;;;;;45.37;23.10;;;;;;;7.85;100.00;63564.91;4900311;29;20028;-92
2023/04/24 02:10:31;;;;;;;41.45;22.20;;;;;;;7.84;100.00;63563.59;4910847;29;20108;-94
2023/04/24 02:12:56;;;;;;;45.47;22.50;;;;;;;7.82;100.00;63562.50;4909213;29;20070;-92
2023/04/24 02:15:21;;;;;;;40.25;21.58;;;;;;;7.81;100.00;63561.09;4939293;29;20016;-92
2023/04/24 02:17:47;;;;;;;47.80;21.53;;;;;;;7.80;100.00;63560.44;4921564;29;20028;-92
2023/04/24 02:20:12;;;;;;;51.13;22.43;;;;;;;7.78;100.00;63558.69;4926621;29;20068;-92
2023/04/24 02:22:37;;;;;;;44.80;23.87;;;;;;;7.77;100.00;63557.38;4934872;28;20115;-95
2023/04/24 02:25:03;;;;;;;47.27;22.10;;;;;;;7.75;100.00;63555.19;4903090;29;20115;-95
2023/04/24 02:27:28;;;;;;;43.50;23.27;;;;;;;7.73;100.00;63553.72;4919013;29;20102;-95
2023/04/24 02:29:55;;;;;;;44.67;21.57;;;;;;;7.71;100.00;63552.03;4917953;29;20066;-94
2023/04/24 02:32:20;;;;;;;50.80;22.58;;;;;;;7.70;100.00;63550.22;4900087;29;20047;-94
2023/04/24 02:34:45;;;;;;;42.93;21.50;;;;;;;7.68;100.00;63548.56;4914008;29;20054;-94
2023/04/24 02:37:10;;;;;;;45.77;21.20;;;;;;;7.66;100.00;63546.25;4917325;29;20600;-94
2023/04/24 02:39:36;;;;;;;48.50;23.97;;;;;;;7.65;100.00;63544.81;4914761;29;20103;-94
2023/04/24 02:42:01;;;;;;;44.83;22.83;;;;;;;7.63;100.00;63543.16;4917175;29;20039;-93
2023/04/24 02:44:26;;;;;;;51.25;23.95;;;;;;;7.63;100.00;63542.59;4916447;29;20685;-94
2023/04/24 02:46:52;;;;;;;53.73;22.70;;;;;;;7.62;100.00;63541.91;4916815;29;20038;-94
2023/04/24 02:49:17;;;;;;;53.57;22.83;;;;;;;7.61;100.00;63540.91;4917318;29;20362;-93
2023/04/24 02:51:42;;;;;;;45.83;23.30;;;;;;;7.60;100.00;63539.94;4908671;29;20039;-94
2023/04/24 02:54:11;;;;;;;49.27;23.03;;;;;;;7.58;100.00;63538.34;4914437;29;20039;-93
2023/04/24 02:56:36;;;;;;;50.47;23.00;;;;;;;7.57;100.00;63537.19;4907858;29;20032;-94
2023/04/24 02:59:02;;;;;;;53.47;23.53;;;;;;;7.56;100.00;63536.19;4897665;29;20722;-93
2023/04/24 03:01:27;;;;;;;48.22;23.02;;;;;;;7.54;100.00;63534.97;4904142;29;20021;-93
2023/04/24 03:03:53;;;;;;;45.27;23.00;;;;;;;7.53;100.00;63533.97;4915781;29;20032;-93
2023/04/24 03:06:18;;;;;;;50.53;24.47;;;;;;;7.52;100.00;63532.88;4922642;29;20027;-94
2023/04/24 03:08:45;;;;;;;46.13;22.07;;;;;;;7.51;100.00;63532.13;4913479;29;20032;-94
2023/04/24 03:11:10;;;;;;;46.70;22.67;;;;;;;7.50;100.00;63531.22;4921513;29;20096;-94
2023/04/24 03:13:35;;;;;;;43.83;23.03;;;;;;;7.49;100.00;63529.56;4911329;29;20068;-94
2023/04/24 03:16:00;;;;;;;40.40;22.53;;;;;;;7.48;100.00;63528.81;4899925;29;20043;-94
2023/04/24 03:18:26;;;;;;;43.78;21.23;;;;;;;7.47;100.00;63528.22;4915821;29;20390;-94
2023/04/24 03:20:51;;;;;;;44.00;22.30;;;;;;;7.47;100.00;63527.91;4916323;29;20480;-95
2023/04/24 03:23:16;;;;;;;49.30;22.67;;;;;;;7.46;100.00;63526.91;4915274;29;20024;-95
2023/04/24 03:25:42;;;;;;;46.50;21.77;;;;;;;7.45;100.00;63526.06;4915607;29;20032;-95
2023/04/24 03:28:08;;;;;;;46.50;21.13;;;;;;;7.44;100.00;63525.56;4918596;29;20032;-95
2023/04/24 03:30:33;;;;;;;44.37;20.93;;;;;;;7.43;100.00;63524.41;4924816;29;20032;-95
2023/04/24 03:32:58;;;;;;;48.90;22.60;;;;;;;7.42;100.00;63524.00;4918995;29;20469;-95
2023/04/24 03:35:24;;;;;;;41.57;20.43;;;;;;;7.42;100.00;63523.16;4936760;29;20296;-95
2023/04/24 03:37:49;;;;;;;45.63;21.60;;;;;;;7.41;100.00;63522.41;4940696;29;20021;-94
2023/04/24 03:40:15;;;;;;;46.03;19.27;;;;;;;7.40;100.00;63521.44;4939572;29;20031;-95
2023/04/24 03:42:40;;;;;;;39.17;20.63;;;;;;;7.39;100.00;63520.25;4942611;28;20015;-93
2023/04/24 03:45:06;;;;;;;43.43;19.43;;;;;;;7.39;100.00;63520.25;4941158;29;20016;-95
2023/04/24 03:47:31;;;;;;;36.88;19.83;;;;;;;7.38;100.00;63519.50;4932221;29;20024;-94
2023/04/24 03:49:57;;;;;;;42.00;21.27;;;;;;;7.37;100.00;63518.19;4923231;29;20067;-94
2023/04/24 03:52:23;;;;;;;39.27;20.47;;;;;;;7.36;100.00;63516.88;4922974;29;20020;-95
2023/04/24 03:54:48;;;;;;;37.07;19.53;;;;;;;7.35;100.00;63516.53;4923900;29;20287;-94
2023/04/24 03:57:16;;;;;;;34.40;19.15;;;;;;;7.34;100.00;63515.53;4921876;29;20372;-94
2023/04/24 03:59:44;;;;;;;38.63;18.40;;;;;;;7.33;100.00;63514.53;4922009;29;20040;-95
2023/04/24 04:02:09;;;;;;;37.60;19.30;;;;;;;7.32;100.00;63512.78;4923058;29;20115;-94
2023/04/24 04:04:35;;;;;;;36.63;17.38;;;;;;;7.31;100.00;63511.53;4900376;29;20496;-93
2023/04/24 04:07:02;;;;;;;34.60;17.50;;;;;;;7.30;100.00;63510.88;4904679;29;20034;-94
2023/04/24 04:09:29;;;;;;;30.53;17.57;;;;;;;7.28;100.00;63509.88;4913791;29;20130;-91
2023/04/24 04:11:55;;;;;;;36.57;17.27;;;;;;;7.28;100.00;63509.47;4933087;29;20300;-93
2023/04/24 04:14:21;;;;;;;38.47;19.10;;;;;;;7.27;100.00;63509.31;4911535;29;20382;-92
2023/04/24 04:16:46;;;;;;;34.03;18.00;;;;;;;7.26;100.00;63508.53;4938463;29;20032;-93
2023/04/24 04:19:11;;;;;;;39.47;17.17;;;;;;;7.25;100.00;63507.72;4939050;29;20051;-90
2023/04/24 04:21:37;;;;;;;36.20;17.70;;;;;;;7.24;100.00;63506.47;4939219;29;20012;-92
2023/04/24 04:24:02;;;;;;;31.93;18.40;;;;;;;7.24;100.00;63505.66;4941546;29;20048;-92
2023/04/24 04:26:27;;;;;;;31.58;16.73;;;;;;;7.22;100.00;63504.22;4940062;29;20035;-92
2023/04/24 04:28:53;;;;;;;37.30;17.07;;;;;;;7.21;100.00;63503.41;4922966;29;20020;-92
2023/04/24 04:31:20;;;;;;;32.70;17.67;;;;;;;7.21;100.00;63502.91;4932089;29;20008;-91
2023/04/24 04:33:46;;;;;;;29.10;16.38;;;;;;;7.20;100.00;63502.09;4919119;29;20029;-90
2023/04/24 04:36:11;;;;;;;32.27;17.60;;;;;;;7.19;100.00;63501.16;4920244;29;20100;-90
2023/04/24 04:38:37;;;;;;;33.95;17.42;;;;;;;7.19;100.00;63500.50;4921813;29;20040;-91
2023/04/24 04:41:02;;;;;;;33.83;16.93;;;;;;;7.19;100.00;63500.50;4934242;29;20469;-92
2023/04/24 04:43:28;;;;;;;27.67;15.93;;;;;;;7.19;100.00;63500.09;4925310;29;20024;-92
2023/04/24 04:45:54;;;;;;;33.83;16.50;;;;;;;7.18;100.00;63499.94;4920622;29;20028;-92
2023/04/24 04:48:19;;;;;;;32.15;18.15;;;;;;;7.18;100.00;63499.75;4903456;29;20099;-92
2023/04/24 04:50:45;;;;;;;28.70;16.10;;;;;;;7.18;100.00;63499.66;4920344;29;20051;-93
2023/04/24 04:53:13;;;;;;;31.67;19.27;;;;;;;7.17;100.00;63499.19;4926594;29;20068;-92
2023/04/24 04:55:39;;;;;;;28.83;15.75;;;;;;;7.17;100.00;63498.94;4919234;29;20047;-88
2023/04/24 04:58:04;;;;;;;31.33;18.40;;;;;;;7.17;100.00;63498.34;4914764;29;20023;-87
2023/04/24 05:00:35;;;;;;;30.10;16.08;;;;;;;7.17;100.00;63498.00;4897153;29;20743;-87
2023/04/24 05:03:00;;;;;;;30.20;16.65;;;;;;;7.17;100.00;63498.19;4905252;29;20020;-87
2023/04/24 05:05:25;;;;;;;30.33;15.87;;;;;;;7.17;100.00;63498.69;4922493;29;20503;-86
2023/04/24 05:07:51;;;;;;;26.77;15.00;;;;;;;7.18;100.00;63499.44;4914611;29;20559;-86
2023/04/24 05:10:16;;;;;;;25.80;14.33;;;;;;;7.19;100.00;63500.09;4919914;29;20048;-86
2023/04/24 05:12:41;;;;;;;26.43;14.13;;;;;;;7.19;100.00;63500.00;4914924;29;20028;-86
2023/04/24 05:15:07;;;;;;;25.27;13.97;;;;;;;7.20;100.00;63500.75;4905558;29;20351;-86
2023/04/24 05:17:33;;;;;;;23.27;13.60;;;;;;;7.20;100.00;63501.00;4916444;29;20108;-86
2023/04/24 05:19:58;;;;;;;26.50;13.13;;;;;;;7.20;100.00;63501.19;4907323;29;20108;-86
2023/04/24 05:22:23;;;;;;;21.43;11.90;;;;;;;7.22;100.00;63502.66;4897615;29;20040;-87
2023/04/24 05:24:49;;;;;;;25.33;12.13;;;;;;;7.22;100.00;63502.91;4913485;29;20025;-86
2023/04/24 05:27:14;;;;;;;21.13;13.00;;;;;;;7.22;100.00;63503.31;4912728;29;20034;-86
2023/04/24 05:29:40;;;;;;;18.48;10.93;;;;;;;7.22;100.00;63503.91;4911969;29;20035;-86
2023/04/24 05:32:06;;;;;;;16.93;10.33;;;;;;;7.23;100.00;63504.16;4916595;29;20369;-86
2023/04/24 05:34:33;;;;;;;17.42;11.10;;;;;;;7.23;100.00;63504.75;4916236;29;20103;-85
2023/04/24 05:36:58;;;;;;;14.63;8.27;;;;;;;7.22;100.00;63504.22;4915595;29;20035;-86
2023/04/24 05:39:25;;;;;;;10.37;6.07;;;;;;;7.22;100.00;63503.75;4912684;29;20048;-85
2023/04/24 05:41:51;;;;;;;10.68;5.80;;;;;;;7.21;100.00;63503.22;4915997;29;20034;-85
2023/04/24 05:44:16;;;;;;;11.37;6.53;;;;;;;7.21;100.00;63502.56;4903471;29;20391;-84
2023/04/24 05:46:41;;;;;;;10.73;4.97;;;;;;;7.20;100.00;63501.94;4912989;29;20028;-87
2023/04/24 05:49:07;;;;;;;11.43;4.50;;;;;;;7.20;100.00;63501.41;4909073;29;20035;-86
2023/04/24 05:51:33;;;;;;;7.07;3.80;;;;;;;7.18;100.00;63499.84;4927970;29;20487;-86
2023/04/24 05:53:58;;;;;;;9.07;3.10;;;;;;;7.18;100.00;63499.09;4910902;29;20020;-84
2023/04/24 05:58:59;;;;;;;5.90;2.83;;;;;;;7.16;100.00;63497.94;4918259;26;20048;-85
2023/04/24 06:01:25;;;;;;;6.43;3.00;;;;;;;7.15;100.00;63497.19;4932710;29;20035;-85
2023/04/24 06:03:50;;;;;;;8.93;2.92;;;;;;;7.14;100.00;63495.84;4915084;29;20032;-84
2023/04/24 06:06:16;;;;;;;13.50;2.90;;;;;;;7.14;100.00;63495.69;4922418;29;20032;-85
2023/04/24 06:08:43;;;;;;;8.57;3.15;;;;;;;7.13;100.00;63495.44;4914706;29;20039;-84
2023/04/24 06:11:10;;;;;;;10.03;2.90;;;;;;;7.13;100.00;63495.19;4915448;29;20031;-85
2023/04/24 06:13:37;;;;;;;10.43;3.10;;;;;;;7.13;100.00;63495.03;4914171;29;20292;-85
2023/04/24 06:16:02;;;;;;;9.88;3.83;;;;;;;7.13;100.00;63494.88;4914970;29;20028;-84
2023/04/24 06:18:27;;;;;;;10.63;3.70;;;;;;;7.12;100.00;63494.53;4898032;29;20052;-85
2023/04/24 06:20:53;;;;;;;14.80;4.10;;;;;;;7.12;100.00;63494.69;4906456;29;20028;-84
2023/04/24 06:23:18;;;;;;;8.47;3.97;;;;;;;7.12;100.00;63494.94;4916076;29;20103;-84
2023/04/24 06:25:44;;;;;;;20.43;4.43;;;;;;;7.12;100.00;63494.69;4898469;29;20029;-85
2023/04/24 06:28:09;;;;;;;19.00;4.23;;;;;;;7.12;100.00;63494.94;4916185;29;20107;-84
2023/04/24 06:30:34;;;;;;;12.73;4.47;;;;;;;7.13;100.00;63495.53;4918082;29;20016;-84
2023/04/24 06:33:00;;;;;;;12.67;4.20;;;;;;;7.14;100.00;63496.50;4903416;29;20500;-84
2023/04/24 06:35:26;;;;;;;7.50;4.37;;;;;;;7.15;100.00;63497.50;4913960;29;20035;-84
2023/04/24 06:37:51;;;;;;;9.15;4.47;;;;;;;7.17;100.00;63498.84;4920299;29;20048;-84
2023/04/24 06:40:18;;;;;;;11.83;5.13;;;;;;;7.18;100.00;63500.34;4925938;29;20307;-84
2023/04/24 06:42:44;;;;;;;26.40;6.65;;;;;;;7.19;100.00;63500.81;4924050;29;20096;-85
2023/04/24 06:45:09;;;;;;;14.02;6.53;;;;;;;7.19;100.00;63501.66;4905067;29;20032;-84
2023/04/24 06:47:37;;;;;;;11.27;6.27;;;;;;;7.19;100.00;63501.16;4906675;29;20039;-84
2023/04/24 06:50:03;;;;;;;11.65;6.45;;;;;;;7.19;100.00;63501.84;4913587;29;20038;-84
2023/04/24 06:52:28;;;;;;;13.70;6.75;;;;;;;7.20;100.00;63502.06;4915563;29;20107;-86
2023/04/24 06:55:00;;;;;;;18.53;8.60;;;;;;;7.20;100.00;63502.66;4903236;29;20055;-84
2023/04/24 06:57:26;;;;;;;23.85;9.82;;;;;;;7.21;100.00;63503.25;4915216;29;20028;-86
2023/04/24 06:59:52;;;;;;;26.50;10.33;;;;;;;7.21;100.00;63503.81;4915331;29;20027;-86
2023/04/24 07:02:17;;;;;;;21.73;10.25;;;;;;;7.21;100.00;63503.97;4894853;29;20040;-85
2023/04/24 07:04:43;;;;;;;29.90;10.80;;;;;;;7.21;100.00;63504.31;4899777;29;20038;-85
2023/04/24 07:07:09;;;;;;;20.27;10.97;;;;;;;7.21;100.00;63503.91;4913966;29;20401;-84
2023/04/24 07:09:38;;;;;;;22.05;10.50;;;;;;;7.21;100.00;63504.06;4908203;29;20051;-85
2023/04/24 07:12:05;;;;;;;25.98;10.90;;;;;;;7.20;100.00;63503.31;4914095;29;20036;-85
2023/04/24 07:14:31;;;;;;;25.20;12.07;;;;;;;7.20;100.00;63503.41;4916316;29;20036;-86
2023/04/24 07:16:56;;;;;;;26.27;12.80;;;;;;;7.18;100.00;63502.00;4913223;29;20328;-85
2023/04/24 07:19:23;;;;;;;30.00;12.27;;;;;;;7.17;100.00;63500.25;4913850;29;20495;-86
2023/04/24 07:21:50;;;;;;;29.42;12.15;;;;;;;7.16;100.00;63499.19;4912515;29;20039;-88
2023/04/24 07:24:17;;;;;;;38.15;12.23;;;;;;;7.14;100.00;63497.50;4921837;29;20632;-83
2023/04/24 07:26:43;;;;;;;26.35;12.32;;;;;;;7.13;100.00;63496.25;4926854;29;20712;-83
2023/04/24 07:29:08;;;;;;;31.60;12.90;;;;;;;7.12;100.00;63495.59;4912612;29;20040;-83
2023/04/24 07:31:33;;;;;;;30.80;12.50;;;;;;;7.11;100.00;63494.53;4913575;29;20039;-82
2023/04/24 07:33:59;;;;;;;29.17;11.68;;;;;;;7.10;100.00;63493.69;4908091;29;20067;-83
2023/04/24 07:36:25;;;;;;;26.30;10.77;;;;;;;7.09;100.00;63493.03;4910320;29;20036;-83
2023/04/24 07:38:51;;;;;;;29.53;11.63;;;;;;;7.08;100.00;63491.94;4914854;29;20307;-84
2023/04/24 07:41:20;;;;;;;30.35;12.18;;;;;;;7.07;100.00;63491.09;4915368;29;20097;-84
2023/04/24 07:43:45;;;;;;;33.00;12.27;;;;;;;7.06;100.00;63490.53;4913921;29;20032;-84
2023/04/24 07:46:11;;;;;;;29.73;12.73;;;;;;;7.06;100.00;63490.44;4906013;29;20112;-82
2023/04/24 07:48:36;;;;;;;24.17;10.63;;;;;;;7.05;100.00;63490.19;4909104;29;20522;-82
2023/04/24 07:51:02;;;;;;;23.90;10.68;;;;;;;7.05;100.00;63490.38;4899788;29;20036;-83
2023/04/24 07:53:33;;;;;;;26.23;10.70;;;;;;;7.05;100.00;63490.44;4917696;29;20028;-82
2023/04/24 07:55:59;;;;;;;29.02;11.15;;;;;;;7.05;100.00;63489.94;4894952;29;20056;-84
2023/04/24 07:58:25;;;;;;;27.13;10.20;;;;;;;7.04;100.00;63488.78;4900947;29;20045;-86
2023/04/24 08:00:50;;;;;;;23.97;9.77;;;;;;;7.03;100.00;63487.72;4912195;29;20106;-86
2023/04/24 08:03:19;;;;;;;27.13;8.70;;;;;;;7.02;100.00;63487.38;4918274;29;20052;-86
2023/04/24 08:05:46;;;;;;;25.30;8.07;;;;;;;7.02;100.00;63487.28;4911425;29;20032;-85
2023/04/24 08:08:11;;;;;;;22.45;8.55;;;;;;;7.02;100.00;63487.63;4896661;29;20036;-84
2023/04/24 08:10:37;;;;;;;28.87;8.87;;;;;;;7.02;100.00;63488.19;4896895;29;20477;-85
2023/04/24 08:13:03;;;;;;;23.77;7.63;;;;;;;7.02;100.00;63488.38;4901011;29;20124;-85
2023/04/24 08:15:29;;;;;;;25.08;8.82;;;;;;;7.03;100.00;63488.97;4895143;29;20044;-84
2023/04/24 08:17:55;;;;;;;29.50;9.07;;;;;;;7.03;100.00;63489.59;4900831;29;20032;-83
2023/04/24 08:20:21;;;;;;;30.70;8.32;;;;;;;7.04;100.00;63490.59;4899171;29;20040;-82
2023/04/24 08:22:48;;;;;;;26.03;7.83;;;;;;;7.05;100.00;63491.53;4897436;29;20484;-82
2023/04/24 08:25:15;;;;;;;29.83;7.97;;;;;;;7.06;100.00;63492.94;4894676;29;20028;-84
2023/04/24 08:27:40;;;;;;;29.00;8.95;;;;;;;7.08;100.00;63494.75;4905206;29;20029;-84
2023/04/24 08:30:07;;;;;;;31.40;9.23;;;;;;;7.11;100.00;63496.84;4909716;29;20050;-84
2023/04/24 08:32:33;;;;;;;33.47;10.27;;;;;;;7.13;100.00;63499.22;4902627;29;20036;-84
2023/04/24 08:34:59;;;;;;;32.57;10.13;;;;;;;7.15;100.00;63501.22;4904811;29;20025;-83
2023/04/24 08:37:26;;;;;;;39.80;10.53;;;;;;;7.17;100.00;63502.56;4917187;29;20284;-83
2023/04/24 08:39:53;;;;;;;36.17;9.70;;;;;;;7.18;100.00;63504.31;4916292;29;20032;-84
2023/04/24 08:42:20;;;;;;;46.25;10.52;;;;;;;7.20;100.00;63506.13;4917332;29;20457;-84
2023/04/24 08:44:48;;;;;;;32.15;10.02;;;;;;;7.22;100.00;63508.09;4898254;29;20028;-83
2023/04/24 08:47:15;;;;;;;39.50;10.32;;;;;;;7.24;100.00;63510.09;4917689;29;20039;-84
2023/04/24 08:49:40;;;;;;;34.67;9.57;;;;;;;7.26;100.00;63511.78;4913521;29;20029;-83
2023/04/24 08:52:06;;;;;;;30.80;9.13;;;;;;;7.28;100.00;63513.91;4916916;29;20032;-83
2023/04/24 08:54:33;;;;;;;32.70;8.40;;;;;;;7.30;100.00;63516.25;4916144;29;20299;-83
2023/04/24 08:57:03;;;;;;;29.67;7.60;;;;;;;7.33;100.00;63519.41;4914671;29;20400;-83
2023/04/24 08:59:33;;;;;;;30.70;7.87;;;;;;;7.38;100.00;63524.03;4914550;29;20028;-84
2023/04/24 09:01:59;;;;;;;34.63;7.40;;;;;;;7.43;100.00;63529.59;4914870;29;20300;-83
2023/04/24 09:04:25;;;;;;;28.08;6.18;;;;;;;7.49;100.00;63535.56;4916080;29;20036;-83
2023/04/24 09:06:56;;;;;;;22.77;4.72;;;;;;;7.53;100.00;63539.41;4915181;29;20020;-83
2023/04/24 09:09:23;;;;;;;20.08;4.28;;;;;;;7.55;100.00;63541.63;4915995;29;20039;-83
2023/04/24 09:11:53;;;;;;;22.33;4.18;;;;;;;7.56;100.00;63542.47;4901110;29;20035;-84
2023/04/24 09:14:19;;;;;;;20.10;4.57;;;;;;;7.57;100.00;63542.81;4901348;29;20024;-84
2023/04/24 09:16:45;;;;;;;16.10;4.60;;;;;;;7.57;100.00;63542.66;4901148;29;20059;-84
2023/04/24 09:19:12;;;;;;;22.83;4.87;;;;;;;7.56;100.00;63542.06;4921035;29;20040;-83
2023/04/24 09:21:40;;;;;;;18.10;4.28;;;;;;;7.55;100.00;63541.31;4906488;29;20045;-84
2023/04/24 09:24:08;;;;;;;17.33;4.10;;;;;;;7.55;100.00;63541.38;4912135;29;20164;-83
2023/04/24 09:26:36;;;;;;;17.20;4.25;;;;;;;7.55;100.00;63541.47;4931861;29;20080;-84
2023/04/24 09:29:03;;;;;;;25.42;4.38;;;;;;;7.57;100.00;63542.97;4918329;29;20532;-84
2023/04/24 09:31:29;;;;;;;19.87;4.40;;;;;;;7.60;100.00;63546.47;4921359;29;20027;-83
2023/04/24 09:34:00;;;;;;;21.50;5.23;;;;;;;7.67;100.00;63553.09;4914486;29;20327;-83
2023/04/24 09:36:36;;;;;;;23.50;6.03;;;;;;;7.75;100.00;63561.00;4914348;29;20151;-83
2023/04/24 09:39:04;;;;;;;15.98;5.43;;;;;;;7.81;100.00;63567.03;4935659;29;20023;-83
2023/04/24 09:41:32;;;;;;;27.02;4.63;;;;;;;7.84;100.00;63570.53;4915023;29;20055;-82
2023/04/24 09:44:10;;;;;;;17.95;3.90;;;;;;;7.86;100.00;63572.44;4909000;29;20084;-81
2023/04/24 09:46:36;;;;;;;24.42;4.60;;;;;;;7.86;100.00;63573.09;4900661;29;20040;-83
2023/04/24 09:49:16;;;;;;;12.97;4.10;;;;;;;7.86;100.00;63572.34;4904002;29;20024;-83
2023/04/24 09:51:41;;;;;;;18.10;3.70;;;;;;;7.84;100.00;63571.28;4899280;29;20167;-83
2023/04/24 09:54:17;;;;;;;17.60;3.50;;;;;;;7.83;100.00;63570.44;4905905;29;20052;-82
2023/04/24 09:56:47;;;;;;;15.60;3.50;;;;;;;7.83;100.00;63570.59;4898984;29;20032;-84
2023/04/24 09:59:19;;;;;;;14.25;3.72;;;;;;;7.84;100.00;63571.94;4896811;29;20368;-82
2023/04/24 10:01:44;;;;;;;13.13;3.10;;;;;;;7.88;100.00;63575.19;4906933;29;20016;-82
2023/04/24 10:04:17;;;;;;;12.07;2.50;;;;;;;7.91;100.00;63579.16;4917860;29;20028;-83
2023/04/24 10:06:43;;;;;;;11.18;2.30;;;;;;;7.95;100.00;63582.31;4905036;29;20510;-83
2023/04/24 10:09:10;;;;;;;8.20;2.38;;;;;;;7.98;100.00;63585.56;4907566;29;20051;-83
2023/04/24 10:11:37;;;;;;;16.37;2.20;;;;;;;8.04;100.00;63591.53;4916616;29;20043;-83
2023/04/24 10:14:03;;;;;;;12.03;2.23;;;;;;;8.12;100.00;63600.00;4914803;29;20660;-82
2023/04/24 10:16:30;;;;;;;9.10;2.00;;;;;;;8.22;100.00;63609.63;4908150;29;20035;-82
2023/04/24 10:18:58;;;;;;;6.95;1.63;;;;;;;8.30;100.00;63617.94;4888320;29;20169;-83
2023/04/24 10:21:24;;;;;;;7.38;1.75;;;;;;;8.36;100.00;63624.31;4896459;29;20021;-83
2023/04/24 10:23:51;;;;;;;13.93;1.85;;;;;;;8.42;100.00;63630.41;4912492;29;20039;-83
2023/04/24 10:26:17;;;;;;;11.93;2.27;;;;;;;8.47;100.00;63635.38;4902927;29;20033;-82
2023/04/24 10:28:47;;;;;;;5.78;1.60;;;;;;;8.52;100.00;63640.13;4901026;29;20187;-82
2023/04/24 10:31:15;;;;;;;7.00;1.70;;;;;;;8.56;100.00;63643.88;4909024;29;20040;-82
2023/04/24 10:33:42;;;;;;;10.52;2.15;;;;;;;8.60;100.00;63648.03;4907024;29;20024;-81
2023/04/24 10:36:11;;;;;;;6.90;1.38;;;;;;;8.63;100.00;63651.03;4902916;29;20099;-82
2023/04/24 10:38:40;;;;;;;6.22;1.00;;;;;;;8.66;100.00;63653.69;4897447;29;20032;-82
2023/04/24 10:41:19;;;;;;;4.70;1.08;;;;;;;8.69;100.00;63657.16;4902665;29;20036;-82
2023/04/24 10:43:44;;;;;;;4.75;1.10;;;;;;;8.71;100.00;63659.75;4897507;29;20037;-82
2023/04/24 10:46:10;;;;;;;6.03;0.90;;;;;;;8.73;100.00;63661.97;4909895;29;20080;-82
2023/04/24 10:48:41;;;;;;;2.13;0.90;;;;;;;8.75;100.00;63663.56;4910994;29;20501;-81
2023/04/24 10:51:11;;;;;;;7.75;1.27;;;;;;;8.77;100.00;63666.56;4911989;29;20557;-82
2023/04/24 10:53:36;;;;;;;6.82;1.30;;;;;;;8.79;100.00;63668.72;4908648;29;20029;-83
2023/04/24 10:56:13;;;;;;;4.73;1.40;;;;;;;8.81;100.00;63670.63;4904755;29;20557;-82
2023/04/24 10:58:44;;;;;;;6.28;1.20;;;;;;;8.82;100.00;63671.94;4912861;29;20488;-82
2023/04/24 11:01:25;;;;;;;7.38;1.15;;;;;;;8.83;100.00;63672.69;4910934;29;20036;-82
2023/04/24 11:03:55;;;;;;;7.45;1.20;;;;;;;8.83;100.00;63673.34;4909257;29;20155;-83
2023/04/24 11:06:35;;;;;;;4.00;0.80;;;;;;;8.83;100.00;63672.63;4902167;29;20028;-82
2023/04/24 11:09:08;;;;;;;5.35;1.17;;;;;;;8.83;100.00;63673.59;4918417;29;20103;-82
2023/04/24 11:11:36;;;;;;;4.75;1.30;;;;;;;8.84;100.00;63674.84;4914520;29;20054;-84
2023/04/24 11:14:04;;;;;;;4.90;1.20;;;;;;;8.86;100.00;63676.03;4910491;29;20023;-82
2023/04/24 11:16:38;;;;;;;6.00;1.00;;;;;;;8.88;100.00;63678.00;4911490;29;20761;-82
2023/04/24 11:19:18;;;;;;;5.10;1.13;;;;;;;8.89;100.00;63679.34;4899105;29;20589;-86
2023/04/24 11:21:48;;;;;;;5.70;1.23;;;;;;;8.89;100.00;63679.84;4901827;29;20783;-84